Terminal Aerodrome Forecast
Issued by NWS

Home | Current Version | Previous Version | Text Only | Print | Product List | Glossary On
Versions: 1 2 3 4 5 6 7 8 9 10 11 12 13
000
FTUS45 KBYZ 210203 AAA
TAFLVM
TAF AMD
KLVM 210203Z 2102/2124 24020G30KT 6SM -SHRA SCT015 BKN035
     FM210400 21012KT 3SM -SN BR BKN015 BKN035
     FM210900 09005KT 6SM -SN BR SCT015 BKN035
     FM211200 23015KT P6SM VCSH BKN040=

USA.gov is the U.S. government's official web portal to all federal, state and local government web resources and services.